sensor_id;sensor_type;location;lat;lon;timestamp;temperature;humidity
20735;DHT22;10528;52.124;5.196;2024-02-21T00:00:47;11.00;99.90
20735;DHT22;10528;52.124;5.196;2024-02-21T00:03:15;10.80;99.90
20735;DHT22;10528;52.124;5.196;2024-02-21T00:05:41;10.80;99.90
20735;DHT22;10528;52.124;5.196;2024-02-21T00:08:08;10.80;99.90
20735;DHT22;10528;52.124;5.196;2024-02-21T00:10:36;10.80;99.90
20735;DHT22;10528;52.124;5.196;2024-02-21T00:13:03;10.80;99.90
20735;DHT22;10528;52.124;5.196;2024-02-21T00:15:30;10.80;99.90
20735;DHT22;10528;52.124;5.196;2024-02-21T00:17:57;10.80;99.90
20735;DHT22;10528;52.124;5.196;2024-02-21T00:20:24;10.90;99.90
20735;DHT22;10528;52.124;5.196;2024-02-21T00:22:52;10.80;99.90
20735;DHT22;10528;52.124;5.196;2024-02-21T00:25:19;10.80;99.90
20735;DHT22;10528;52.124;5.196;2024-02-21T00:27:46;10.80;99.90
20735;DHT22;10528;52.124;5.196;2024-02-21T00:30:13;10.80;99.90
20735;DHT22;10528;52.124;5.196;2024-02-21T00:32:41;10.80;99.90
20735;DHT22;10528;52.124;5.196;2024-02-21T00:35:08;11.00;99.90
20735;DHT22;10528;52.124;5.196;2024-02-21T00:37:35;10.90;99.90
20735;DHT22;10528;52.124;5.196;2024-02-21T00:40:02;10.80;99.90
20735;DHT22;10528;52.124;5.196;2024-02-21T00:42:29;10.80;99.90
20735;DHT22;10528;52.124;5.196;2024-02-21T00:44:56;10.80;99.90
20735;DHT22;10528;52.124;5.196;2024-02-21T00:47:23;11.00;99.90
20735;DHT22;10528;52.124;5.196;2024-02-21T00:49:50;11.00;99.90
20735;DHT22;10528;52.124;5.196;2024-02-21T00:52:17;11.00;99.90
20735;DHT22;10528;52.124;5.196;2024-02-21T00:54:44;10.90;99.90
20735;DHT22;10528;52.124;5.196;2024-02-21T00:57:20;10.80;99.90
20735;DHT22;10528;52.124;5.196;2024-02-21T00:59:47;10.80;99.90
20735;DHT22;10528;52.124;5.196;2024-02-21T01:02:14;11.00;99.90
20735;DHT22;10528;52.124;5.196;2024-02-21T01:04:41;10.80;99.90
20735;DHT22;10528;52.124;5.196;2024-02-21T01:07:08;11.00;99.90
20735;DHT22;10528;52.124;5.196;2024-02-21T01:09:35;10.90;99.90
20735;DHT22;10528;52.124;5.196;2024-02-21T01:12:02;10.70;99.90
20735;DHT22;10528;52.124;5.196;2024-02-21T01:14:29;10.90;99.90
20735;DHT22;10528;52.124;5.196;2024-02-21T01:16:56;10.80;99.90
20735;DHT22;10528;52.124;5.196;2024-02-21T01:19:23;10.80;99.90
20735;DHT22;10528;52.124;5.196;2024-02-21T01:21:50;10.90;99.90
20735;DHT22;10528;52.124;5.196;2024-02-21T01:24:17;11.00;99.90
20735;DHT22;10528;52.124;5.196;2024-02-21T01:26:44;10.90;99.90
20735;DHT22;10528;52.124;5.196;2024-02-21T01:29:11;10.90;99.90
20735;DHT22;10528;52.124;5.196;2024-02-21T01:31:38;10.90;99.90
20735;DHT22;10528;52.124;5.196;2024-02-21T01:34:05;10.80;99.90
20735;DHT22;10528;52.124;5.196;2024-02-21T01:36:32;10.70;99.90
20735;DHT22;10528;52.124;5.196;2024-02-21T01:38:59;10.70;99.90
20735;DHT22;10528;52.124;5.196;2024-02-21T01:41:26;10.80;99.90
20735;DHT22;10528;52.124;5.196;2024-02-21T01:43:53;10.70;99.90
20735;DHT22;10528;52.124;5.196;2024-02-21T01:46:20;10.70;99.90
20735;DHT22;10528;52.124;5.196;2024-02-21T01:48:47;10.70;99.90
20735;DHT22;10528;52.124;5.196;2024-02-21T01:51:15;10.80;99.90
20735;DHT22;10528;52.124;5.196;2024-02-21T01:53:43;10.80;99.90
20735;DHT22;10528;52.124;5.196;2024-02-21T01:56:12;10.90;99.90
20735;DHT22;10528;52.124;5.196;2024-02-21T01:58:42;10.80;99.90
20735;DHT22;10528;52.124;5.196;2024-02-21T02:01:10;10.80;99.90
20735;DHT22;10528;52.124;5.196;2024-02-21T02:03:38;10.90;99.90
20735;DHT22;10528;52.124;5.196;2024-02-21T02:06:05;10.90;99.90
20735;DHT22;10528;52.124;5.196;2024-02-21T02:08:35;10.80;99.90
20735;DHT22;10528;52.124;5.196;2024-02-21T02:11:03;10.90;99.90
20735;DHT22;10528;52.124;5.196;2024-02-21T02:13:30;11.00;99.90
20735;DHT22;10528;52.124;5.196;2024-02-21T02:15:57;10.90;99.90
20735;DHT22;10528;52.124;5.196;2024-02-21T02:18:24;10.80;99.90
20735;DHT22;10528;52.124;5.196;2024-02-21T02:20:51;10.90;99.90
20735;DHT22;10528;52.124;5.196;2024-02-21T02:23:32;10.90;99.90
20735;DHT22;10528;52.124;5.196;2024-02-21T02:26:00;10.90;99.90
20735;DHT22;10528;52.124;5.196;2024-02-21T02:28:30;10.80;99.90
20735;DHT22;10528;52.124;5.196;2024-02-21T02:30:57;10.80;99.90
20735;DHT22;10528;52.124;5.196;2024-02-21T02:33:24;10.90;99.90
20735;DHT22;10528;52.124;5.196;2024-02-21T02:35:51;10.90;99.90
20735;DHT22;10528;52.124;5.196;2024-02-21T02:38:18;11.00;99.90
20735;DHT22;10528;52.124;5.196;2024-02-21T02:40:45;10.90;99.90
20735;DHT22;10528;52.124;5.196;2024-02-21T02:43:12;10.90;99.90
20735;DHT22;10528;52.124;5.196;2024-02-21T02:45:39;10.90;99.90
20735;DHT22;10528;52.124;5.196;2024-02-21T02:48:07;10.90;99.90
20735;DHT22;10528;52.124;5.196;2024-02-21T02:50:34;10.90;99.90
20735;DHT22;10528;52.124;5.196;2024-02-21T02:53:01;10.80;99.90
20735;DHT22;10528;52.124;5.196;2024-02-21T02:55:28;10.80;99.90
20735;DHT22;10528;52.124;5.196;2024-02-21T02:57:55;10.80;99.90
20735;DHT22;10528;52.124;5.196;2024-02-21T03:00:23;10.90;99.90
20735;DHT22;10528;52.124;5.196;2024-02-21T03:02:50;10.80;99.90
20735;DHT22;10528;52.124;5.196;2024-02-21T03:05:19;10.80;99.90
20735;DHT22;10528;52.124;5.196;2024-02-21T03:07:48;10.80;99.90
20735;DHT22;10528;52.124;5.196;2024-02-21T03:10:17;10.80;99.90
20735;DHT22;10528;52.124;5.196;2024-02-21T03:12:45;10.80;99.90
20735;DHT22;10528;52.124;5.196;2024-02-21T03:15:13;10.80;99.90
20735;DHT22;10528;52.124;5.196;2024-02-21T03:17:41;10.80;99.90
20735;DHT22;10528;52.124;5.196;2024-02-21T03:20:09;10.70;99.90
20735;DHT22;10528;52.124;5.196;2024-02-21T03:22:40;10.80;99.90
20735;DHT22;10528;52.124;5.196;2024-02-21T03:25:11;10.70;99.90
20735;DHT22;10528;52.124;5.196;2024-02-21T03:27:39;10.80;99.90
20735;DHT22;10528;52.124;5.196;2024-02-21T03:30:06;10.70;99.90
20735;DHT22;10528;52.124;5.196;2024-02-21T03:32:33;10.80;99.90
20735;DHT22;10528;52.124;5.196;2024-02-21T03:35:00;10.80;99.90
20735;DHT22;10528;52.124;5.196;2024-02-21T03:37:28;10.70;99.90
20735;DHT22;10528;52.124;5.196;2024-02-21T03:39:54;10.80;99.90
20735;DHT22;10528;52.124;5.196;2024-02-21T03:42:22;10.70;99.90
20735;DHT22;10528;52.124;5.196;2024-02-21T03:44:49;10.70;99.90
20735;DHT22;10528;52.124;5.196;2024-02-21T03:47:16;10.80;99.90
20735;DHT22;10528;52.124;5.196;2024-02-21T03:49:43;10.70;99.90
20735;DHT22;10528;52.124;5.196;2024-02-21T03:52:10;10.80;99.90
20735;DHT22;10528;52.124;5.196;2024-02-21T03:54:37;10.80;99.90
20735;DHT22;10528;52.124;5.196;2024-02-21T03:57:05;10.70;99.90
20735;DHT22;10528;52.124;5.196;2024-02-21T03:59:33;10.70;99.90
20735;DHT22;10528;52.124;5.196;2024-02-21T04:01:59;10.70;99.90
20735;DHT22;10528;52.124;5.196;2024-02-21T04:04:27;10.80;99.90
20735;DHT22;10528;52.124;5.196;2024-02-21T04:06:54;10.80;99.90
20735;DHT22;10528;52.124;5.196;2024-02-21T04:09:21;10.80;99.90
20735;DHT22;10528;52.124;5.196;2024-02-21T04:11:48;10.70;99.90
20735;DHT22;10528;52.124;5.196;2024-02-21T04:14:15;10.70;99.90
20735;DHT22;10528;52.124;5.196;2024-02-21T04:16:42;10.70;99.90
20735;DHT22;10528;52.124;5.196;2024-02-21T04:19:09;10.70;99.90
20735;DHT22;10528;52.124;5.196;2024-02-21T04:21:36;10.70;99.90
20735;DHT22;10528;52.124;5.196;2024-02-21T04:24:03;10.70;99.90
20735;DHT22;10528;52.124;5.196;2024-02-21T04:26:33;10.70;99.90
20735;DHT22;10528;52.124;5.196;2024-02-21T04:29:00;10.70;99.90
20735;DHT22;10528;52.124;5.196;2024-02-21T04:31:28;10.70;99.90
20735;DHT22;10528;52.124;5.196;2024-02-21T04:33:56;10.70;99.90
20735;DHT22;10528;52.124;5.196;2024-02-21T04:36:23;10.70;99.90
20735;DHT22;10528;52.124;5.196;2024-02-21T04:38:50;10.70;99.90
20735;DHT22;10528;52.124;5.196;2024-02-21T04:41:17;10.70;99.90
20735;DHT22;10528;52.124;5.196;2024-02-21T04:43:46;10.70;99.90
20735;DHT22;10528;52.124;5.196;2024-02-21T04:46:14;10.80;99.90
20735;DHT22;10528;52.124;5.196;2024-02-21T04:48:42;10.70;99.90
20735;DHT22;10528;52.124;5.196;2024-02-21T04:51:11;10.70;99.90
20735;DHT22;10528;52.124;5.196;2024-02-21T04:53:38;10.70;99.90
20735;DHT22;10528;52.124;5.196;2024-02-21T04:56:05;10.80;99.90
20735;DHT22;10528;52.124;5.196;2024-02-21T04:58:32;10.70;99.90
20735;DHT22;10528;52.124;5.196;2024-02-21T05:00:59;10.60;99.90
20735;DHT22;10528;52.124;5.196;2024-02-21T05:03:26;10.60;99.90
20735;DHT22;10528;52.124;5.196;2024-02-21T05:05:53;10.70;99.90
20735;DHT22;10528;52.124;5.196;2024-02-21T05:08:20;10.70;99.90
20735;DHT22;10528;52.124;5.196;2024-02-21T05:10:47;10.80;99.90
20735;DHT22;10528;52.124;5.196;2024-02-21T05:13:14;10.70;99.90
20735;DHT22;10528;52.124;5.196;2024-02-21T05:15:42;10.70;99.90
20735;DHT22;10528;52.124;5.196;2024-02-21T05:18:09;10.70;99.90
20735;DHT22;10528;52.124;5.196;2024-02-21T05:20:36;10.60;99.90
20735;DHT22;10528;52.124;5.196;2024-02-21T05:23:03;10.70;99.90
20735;DHT22;10528;52.124;5.196;2024-02-21T05:25:30;10.70;99.90
20735;DHT22;10528;52.124;5.196;2024-02-21T05:27:57;10.70;99.90
20735;DHT22;10528;52.124;5.196;2024-02-21T05:30:28;10.80;99.90
20735;DHT22;10528;52.124;5.196;2024-02-21T05:32:56;10.70;99.90
20735;DHT22;10528;52.124;5.196;2024-02-21T05:35:27;10.70;99.90
20735;DHT22;10528;52.124;5.196;2024-02-21T05:37:55;10.80;99.90
20735;DHT22;10528;52.124;5.196;2024-02-21T05:40:22;10.80;99.90
20735;DHT22;10528;52.124;5.196;2024-02-21T05:42:49;10.70;99.90
20735;DHT22;10528;52.124;5.196;2024-02-21T05:45:18;10.70;99.90
20735;DHT22;10528;52.124;5.196;2024-02-21T05:47:45;10.70;99.90
20735;DHT22;10528;52.124;5.196;2024-02-21T05:50:12;10.70;99.90
20735;DHT22;10528;52.124;5.196;2024-02-21T05:52:39;10.70;99.90
20735;DHT22;10528;52.124;5.196;2024-02-21T05:55:07;10.60;99.90
20735;DHT22;10528;52.124;5.196;2024-02-21T05:57:36;10.60;99.90
20735;DHT22;10528;52.124;5.196;2024-02-21T06:00:05;10.60;99.90
20735;DHT22;10528;52.124;5.196;2024-02-21T06:02:37;10.60;99.90
20735;DHT22;10528;52.124;5.196;2024-02-21T06:05:05;10.70;99.90
20735;DHT22;10528;52.124;5.196;2024-02-21T06:07:34;10.60;99.90
20735;DHT22;10528;52.124;5.196;2024-02-21T06:10:02;10.60;99.90
20735;DHT22;10528;52.124;5.196;2024-02-21T06:12:29;10.60;99.90
20735;DHT22;10528;52.124;5.196;2024-02-21T06:14:56;10.60;99.90
20735;DHT22;10528;52.124;5.196;2024-02-21T06:17:23;10.60;99.90
20735;DHT22;10528;52.124;5.196;2024-02-21T06:19:50;10.60;99.90
20735;DHT22;10528;52.124;5.196;2024-02-21T06:22:17;10.60;99.90
20735;DHT22;10528;52.124;5.196;2024-02-21T06:24:44;10.50;99.90
20735;DHT22;10528;52.124;5.196;2024-02-21T06:27:12;10.60;99.90
20735;DHT22;10528;52.124;5.196;2024-02-21T06:29:41;10.60;99.90
20735;DHT22;10528;52.124;5.196;2024-02-21T06:32:08;10.60;99.90
20735;DHT22;10528;52.124;5.196;2024-02-21T06:34:35;10.60;99.90
20735;DHT22;10528;52.124;5.196;2024-02-21T06:37:02;10.60;99.90
20735;DHT22;10528;52.124;5.196;2024-02-21T06:39:29;10.60;99.90
20735;DHT22;10528;52.124;5.196;2024-02-21T06:41:56;10.60;99.90
20735;DHT22;10528;52.124;5.196;2024-02-21T06:44:29;10.60;99.90
20735;DHT22;10528;52.124;5.196;2024-02-21T06:46:56;10.50;99.90
20735;DHT22;10528;52.124;5.196;2024-02-21T06:49:23;10.60;99.90
20735;DHT22;10528;52.124;5.196;2024-02-21T06:51:50;10.50;99.90
20735;DHT22;10528;52.124;5.196;2024-02-21T06:54:17;10.50;99.90
20735;DHT22;10528;52.124;5.196;2024-02-21T06:56:44;10.50;99.90
20735;DHT22;10528;52.124;5.196;2024-02-21T06:59:11;10.60;99.90
20735;DHT22;10528;52.124;5.196;2024-02-21T07:01:52;10.50;99.90
20735;DHT22;10528;52.124;5.196;2024-02-21T07:04:20;10.50;99.90
20735;DHT22;10528;52.124;5.196;2024-02-21T07:06:47;10.50;99.90
20735;DHT22;10528;52.124;5.196;2024-02-21T07:09:14;10.50;99.90
20735;DHT22;10528;52.124;5.196;2024-02-21T07:11:41;10.50;99.90
20735;DHT22;10528;52.124;5.196;2024-02-21T07:14:08;10.50;99.90
20735;DHT22;10528;52.124;5.196;2024-02-21T07:16:35;10.40;99.90
20735;DHT22;10528;52.124;5.196;2024-02-21T07:19:02;10.40;99.90
20735;DHT22;10528;52.124;5.196;2024-02-21T07:21:30;10.40;99.90
20735;DHT22;10528;52.124;5.196;2024-02-21T07:23:57;10.40;99.90
20735;DHT22;10528;52.124;5.196;2024-02-21T07:26:23;10.50;99.90
20735;DHT22;10528;52.124;5.196;2024-02-21T07:28:50;10.50;99.90
20735;DHT22;10528;52.124;5.196;2024-02-21T07:31:17;10.50;99.90
20735;DHT22;10528;52.124;5.196;2024-02-21T07:33:44;10.40;99.90
20735;DHT22;10528;52.124;5.196;2024-02-21T07:36:11;10.40;99.90
20735;DHT22;10528;52.124;5.196;2024-02-21T07:38:39;10.40;99.90
20735;DHT22;10528;52.124;5.196;2024-02-21T07:41:06;10.40;99.90
20735;DHT22;10528;52.124;5.196;2024-02-21T07:43:33;10.30;99.90
20735;DHT22;10528;52.124;5.196;2024-02-21T07:46:00;10.40;99.90
20735;DHT22;10528;52.124;5.196;2024-02-21T07:48:27;10.30;99.90
20735;DHT22;10528;52.124;5.196;2024-02-21T07:50:55;10.40;99.90
20735;DHT22;10528;52.124;5.196;2024-02-21T07:53:22;10.40;99.90
20735;DHT22;10528;52.124;5.196;2024-02-21T07:55:49;10.50;99.90
20735;DHT22;10528;52.124;5.196;2024-02-21T07:58:16;10.50;99.90
20735;DHT22;10528;52.124;5.196;2024-02-21T08:00:43;10.50;99.90
20735;DHT22;10528;52.124;5.196;2024-02-21T08:03:10;10.50;99.90
20735;DHT22;10528;52.124;5.196;2024-02-21T08:05:37;10.50;99.90
20735;DHT22;10528;52.124;5.196;2024-02-21T08:08:04;10.40;99.90
20735;DHT22;10528;52.124;5.196;2024-02-21T08:10:32;10.50;99.90
20735;DHT22;10528;52.124;5.196;2024-02-21T08:12:59;10.60;99.90
20735;DHT22;10528;52.124;5.196;2024-02-21T08:15:26;10.60;99.90
20735;DHT22;10528;52.124;5.196;2024-02-21T08:17:56;10.60;99.90
20735;DHT22;10528;52.124;5.196;2024-02-21T08:20:27;10.50;99.90
20735;DHT22;10528;52.124;5.196;2024-02-21T08:22:54;10.50;99.90
20735;DHT22;10528;52.124;5.196;2024-02-21T08:25:21;10.50;99.90
20735;DHT22;10528;52.124;5.196;2024-02-21T08:27:48;10.60;99.90
20735;DHT22;10528;52.124;5.196;2024-02-21T08:30:15;10.60;99.90
20735;DHT22;10528;52.124;5.196;2024-02-21T08:32:42;10.60;99.90
20735;DHT22;10528;52.124;5.196;2024-02-21T08:35:10;10.60;99.90
20735;DHT22;10528;52.124;5.196;2024-02-21T08:37:37;10.50;99.90
20735;DHT22;10528;52.124;5.196;2024-02-21T08:40:04;10.60;99.90
20735;DHT22;10528;52.124;5.196;2024-02-21T08:42:36;10.70;99.90
20735;DHT22;10528;52.124;5.196;2024-02-21T08:45:05;10.60;99.90
20735;DHT22;10528;52.124;5.196;2024-02-21T08:47:32;10.50;99.90
20735;DHT22;10528;52.124;5.196;2024-02-21T08:49:59;10.60;99.90
20735;DHT22;10528;52.124;5.196;2024-02-21T08:52:40;10.50;99.90
20735;DHT22;10528;52.124;5.196;2024-02-21T08:55:08;10.60;99.90
20735;DHT22;10528;52.124;5.196;2024-02-21T08:57:35;10.60;99.90
20735;DHT22;10528;52.124;5.196;2024-02-21T09:00:06;10.70;99.90
20735;DHT22;10528;52.124;5.196;2024-02-21T09:02:39;10.70;99.90
20735;DHT22;10528;52.124;5.196;2024-02-21T09:05:07;10.80;99.90
20735;DHT22;10528;52.124;5.196;2024-02-21T09:07:35;10.70;99.90
20735;DHT22;10528;52.124;5.196;2024-02-21T09:10:02;10.70;99.90
20735;DHT22;10528;52.124;5.196;2024-02-21T09:12:29;10.80;99.90
20735;DHT22;10528;52.124;5.196;2024-02-21T09:14:56;10.90;99.90
20735;DHT22;10528;52.124;5.196;2024-02-21T09:17:23;10.90;99.90
20735;DHT22;10528;52.124;5.196;2024-02-21T09:19:51;10.90;99.90
20735;DHT22;10528;52.124;5.196;2024-02-21T09:22:19;10.80;99.90
20735;DHT22;10528;52.124;5.196;2024-02-21T09:24:46;10.70;99.90
20735;DHT22;10528;52.124;5.196;2024-02-21T09:27:14;10.80;99.90
20735;DHT22;10528;52.124;5.196;2024-02-21T09:29:41;10.80;99.90
20735;DHT22;10528;52.124;5.196;2024-02-21T09:32:08;10.80;99.90
20735;DHT22;10528;52.124;5.196;2024-02-21T09:34:35;10.80;99.90
20735;DHT22;10528;52.124;5.196;2024-02-21T09:37:02;10.80;99.90
20735;DHT22;10528;52.124;5.196;2024-02-21T09:39:29;10.80;99.90
20735;DHT22;10528;52.124;5.196;2024-02-21T09:42:02;10.90;99.90
20735;DHT22;10528;52.124;5.196;2024-02-21T09:44:37;10.80;99.90
20735;DHT22;10528;52.124;5.196;2024-02-21T09:47:15;10.90;99.90
20735;DHT22;10528;52.124;5.196;2024-02-21T09:49:47;10.90;99.90
20735;DHT22;10528;52.124;5.196;2024-02-21T09:52:15;10.90;99.90
20735;DHT22;10528;52.124;5.196;2024-02-21T09:54:43;10.90;99.90
20735;DHT22;10528;52.124;5.196;2024-02-21T09:57:11;11.00;99.90
20735;DHT22;10528;52.124;5.196;2024-02-21T09:59:39;11.10;99.90
20735;DHT22;10528;52.124;5.196;2024-02-21T10:02:08;11.10;99.90
20735;DHT22;10528;52.124;5.196;2024-02-21T10:04:36;11.00;99.90
20735;DHT22;10528;52.124;5.196;2024-02-21T10:07:03;11.10;99.90
20735;DHT22;10528;52.124;5.196;2024-02-21T10:09:31;11.10;99.90
20735;DHT22;10528;52.124;5.196;2024-02-21T10:14:38;11.10;99.90
20735;DHT22;10528;52.124;5.196;2024-02-21T10:17:05;11.20;99.90
20735;DHT22;10528;52.124;5.196;2024-02-21T10:19:37;11.10;99.90
20735;DHT22;10528;52.124;5.196;2024-02-21T10:22:08;11.30;99.90
20735;DHT22;10528;52.124;5.196;2024-02-21T10:24:36;11.10;99.90
20735;DHT22;10528;52.124;5.196;2024-02-21T10:27:10;11.30;99.90
20735;DHT22;10528;52.124;5.196;2024-02-21T10:29:39;11.20;99.90
20735;DHT22;10528;52.124;5.196;2024-02-21T10:32:09;11.30;99.90
20735;DHT22;10528;52.124;5.196;2024-02-21T10:34:38;11.30;99.90
20735;DHT22;10528;52.124;5.196;2024-02-21T10:37:08;11.40;99.90
20735;DHT22;10528;52.124;5.196;2024-02-21T10:39:38;11.40;99.90
20735;DHT22;10528;52.124;5.196;2024-02-21T10:42:10;11.50;99.90
20735;DHT22;10528;52.124;5.196;2024-02-21T10:44:39;11.50;99.90
20735;DHT22;10528;52.124;5.196;2024-02-21T10:47:09;11.60;99.90
20735;DHT22;10528;52.124;5.196;2024-02-21T10:49:40;11.50;99.90
20735;DHT22;10528;52.124;5.196;2024-02-21T10:52:19;11.50;99.90
20735;DHT22;10528;52.124;5.196;2024-02-21T10:55:09;11.50;99.90
20735;DHT22;10528;52.124;5.196;2024-02-21T10:57:40;11.50;99.90
20735;DHT22;10528;52.124;5.196;2024-02-21T11:00:08;11.40;99.90
20735;DHT22;10528;52.124;5.196;2024-02-21T11:02:39;11.30;99.90
20735;DHT22;10528;52.124;5.196;2024-02-21T11:05:07;11.50;99.90
20735;DHT22;10528;52.124;5.196;2024-02-21T11:07:37;11.50;99.90
20735;DHT22;10528;52.124;5.196;2024-02-21T11:10:05;11.60;99.90
20735;DHT22;10528;52.124;5.196;2024-02-21T11:12:34;11.60;99.90
20735;DHT22;10528;52.124;5.196;2024-02-21T11:15:07;11.50;99.90
20735;DHT22;10528;52.124;5.196;2024-02-21T11:17:34;11.50;99.90
20735;DHT22;10528;52.124;5.196;2024-02-21T11:20:15;11.50;99.90
20735;DHT22;10528;52.124;5.196;2024-02-21T11:22:43;11.40;99.90
20735;DHT22;10528;52.124;5.196;2024-02-21T11:25:47;11.40;99.90
20735;DHT22;10528;52.124;5.196;2024-02-21T11:28:25;11.30;99.90
20735;DHT22;10528;52.124;5.196;2024-02-21T11:30:52;11.20;99.90
20735;DHT22;10528;52.124;5.196;2024-02-21T11:33:22;11.20;99.90
20735;DHT22;10528;52.124;5.196;2024-02-21T11:35:50;11.30;99.90
20735;DHT22;10528;52.124;5.196;2024-02-21T11:38:19;11.20;99.90
20735;DHT22;10528;52.124;5.196;2024-02-21T11:40:49;11.20;99.90
20735;DHT22;10528;52.124;5.196;2024-02-21T11:43:16;11.10;99.90
20735;DHT22;10528;52.124;5.196;2024-02-21T11:45:43;11.10;99.90
20735;DHT22;10528;52.124;5.196;2024-02-21T11:48:10;11.20;99.90
20735;DHT22;10528;52.124;5.196;2024-02-21T11:50:37;11.20;99.90
20735;DHT22;10528;52.124;5.196;2024-02-21T11:53:06;11.30;99.90
20735;DHT22;10528;52.124;5.196;2024-02-21T11:55:33;11.30;99.90
20735;DHT22;10528;52.124;5.196;2024-02-21T11:58:01;11.30;99.90
20735;DHT22;10528;52.124;5.196;2024-02-21T12:00:28;11.50;99.90
20735;DHT22;10528;52.124;5.196;2024-02-21T12:02:55;11.60;99.90
20735;DHT22;10528;52.124;5.196;2024-02-21T12:05:27;11.50;99.90
20735;DHT22;10528;52.124;5.196;2024-02-21T12:07:55;11.60;99.90
20735;DHT22;10528;52.124;5.196;2024-02-21T12:10:26;11.60;99.90
20735;DHT22;10528;52.124;5.196;2024-02-21T12:13:09;11.70;99.90
20735;DHT22;10528;52.124;5.196;2024-02-21T12:15:38;11.80;99.90
20735;DHT22;10528;52.124;5.196;2024-02-21T12:18:05;11.80;99.90
20735;DHT22;10528;52.124;5.196;2024-02-21T12:20:32;11.70;99.90
20735;DHT22;10528;52.124;5.196;2024-02-21T12:23:01;11.80;99.90
20735;DHT22;10528;52.124;5.196;2024-02-21T12:25:28;11.70;99.90
20735;DHT22;10528;52.124;5.196;2024-02-21T12:27:55;11.70;99.90
20735;DHT22;10528;52.124;5.196;2024-02-21T12:30:23;11.80;99.90
20735;DHT22;10528;52.124;5.196;2024-02-21T12:32:50;11.80;99.90
20735;DHT22;10528;52.124;5.196;2024-02-21T12:35:17;11.80;99.90
20735;DHT22;10528;52.124;5.196;2024-02-21T12:37:47;11.80;99.90
20735;DHT22;10528;52.124;5.196;2024-02-21T12:40:14;11.90;99.90
20735;DHT22;10528;52.124;5.196;2024-02-21T12:42:42;11.90;99.90
20735;DHT22;10528;52.124;5.196;2024-02-21T12:45:09;11.90;99.90
20735;DHT22;10528;52.124;5.196;2024-02-21T12:47:36;11.90;99.90
20735;DHT22;10528;52.124;5.196;2024-02-21T12:50:03;11.90;99.90
20735;DHT22;10528;52.124;5.196;2024-02-21T12:52:34;12.00;99.90
20735;DHT22;10528;52.124;5.196;2024-02-21T12:55:26;11.90;99.90
20735;DHT22;10528;52.124;5.196;2024-02-21T12:57:53;12.00;99.90
20735;DHT22;10528;52.124;5.196;2024-02-21T13:00:20;12.00;99.90
20735;DHT22;10528;52.124;5.196;2024-02-21T13:02:47;11.90;99.90
20735;DHT22;10528;52.124;5.196;2024-02-21T13:05:14;11.90;99.90
20735;DHT22;10528;52.124;5.196;2024-02-21T13:07:42;11.90;99.90
20735;DHT22;10528;52.124;5.196;2024-02-21T13:10:09;12.00;99.90
20735;DHT22;10528;52.124;5.196;2024-02-21T13:12:36;12.00;99.90
20735;DHT22;10528;52.124;5.196;2024-02-21T13:15:03;12.00;99.90
20735;DHT22;10528;52.124;5.196;2024-02-21T13:17:31;12.10;99.90
20735;DHT22;10528;52.124;5.196;2024-02-21T13:19:58;12.10;99.90
20735;DHT22;10528;52.124;5.196;2024-02-21T13:22:26;12.10;99.90
20735;DHT22;10528;52.124;5.196;2024-02-21T13:24:53;11.90;99.90
20735;DHT22;10528;52.124;5.196;2024-02-21T13:27:23;11.90;99.90
20735;DHT22;10528;52.124;5.196;2024-02-21T13:29:50;11.90;99.90
20735;DHT22;10528;52.124;5.196;2024-02-21T13:32:17;11.80;99.90
20735;DHT22;10528;52.124;5.196;2024-02-21T13:34:44;11.80;99.90
20735;DHT22;10528;52.124;5.196;2024-02-21T13:37:11;11.90;99.90
20735;DHT22;10528;52.124;5.196;2024-02-21T13:39:38;11.80;99.90
20735;DHT22;10528;52.124;5.196;2024-02-21T13:42:05;11.80;99.90
20735;DHT22;10528;52.124;5.196;2024-02-21T13:44:32;11.80;99.90
20735;DHT22;10528;52.124;5.196;2024-02-21T13:47:01;11.80;99.90
20735;DHT22;10528;52.124;5.196;2024-02-21T13:49:28;11.80;99.90
20735;DHT22;10528;52.124;5.196;2024-02-21T13:51:55;11.80;99.90
20735;DHT22;10528;52.124;5.196;2024-02-21T13:54:22;11.80;99.90
20735;DHT22;10528;52.124;5.196;2024-02-21T13:56:49;11.80;99.90
20735;DHT22;10528;52.124;5.196;2024-02-21T13:59:16;11.80;99.90
20735;DHT22;10528;52.124;5.196;2024-02-21T14:01:43;11.80;99.90
20735;DHT22;10528;52.124;5.196;2024-02-21T14:04:11;11.70;99.90
20735;DHT22;10528;52.124;5.196;2024-02-21T14:06:38;11.80;99.90
20735;DHT22;10528;52.124;5.196;2024-02-21T14:09:10;11.80;99.90
20735;DHT22;10528;52.124;5.196;2024-02-21T14:11:37;11.70;99.90
20735;DHT22;10528;52.124;5.196;2024-02-21T14:14:05;11.70;99.90
20735;DHT22;10528;52.124;5.196;2024-02-21T14:16:33;11.70;99.90
20735;DHT22;10528;52.124;5.196;2024-02-21T14:19:00;11.80;99.90
20735;DHT22;10528;52.124;5.196;2024-02-21T14:21:27;11.70;99.90
20735;DHT22;10528;52.124;5.196;2024-02-21T14:23:55;11.70;99.90
20735;DHT22;10528;52.124;5.196;2024-02-21T14:26:23;11.60;99.90
20735;DHT22;10528;52.124;5.196;2024-02-21T14:28:50;11.60;99.90
20735;DHT22;10528;52.124;5.196;2024-02-21T14:31:17;11.50;99.90
20735;DHT22;10528;52.124;5.196;2024-02-21T14:33:44;11.50;99.90
20735;DHT22;10528;52.124;5.196;2024-02-21T14:36:13;11.50;99.90
20735;DHT22;10528;52.124;5.196;2024-02-21T14:38:42;11.60;99.90
20735;DHT22;10528;52.124;5.196;2024-02-21T14:41:13;11.60;99.90
20735;DHT22;10528;52.124;5.196;2024-02-21T14:43:40;11.50;99.90
20735;DHT22;10528;52.124;5.196;2024-02-21T14:46:08;11.50;99.90
20735;DHT22;10528;52.124;5.196;2024-02-21T14:48:35;11.40;99.90
20735;DHT22;10528;52.124;5.196;2024-02-21T14:51:03;11.40;99.90
20735;DHT22;10528;52.124;5.196;2024-02-21T14:53:30;11.40;99.90
20735;DHT22;10528;52.124;5.196;2024-02-21T14:55:57;11.30;99.90
20735;DHT22;10528;52.124;5.196;2024-02-21T14:58:27;11.20;99.90
20735;DHT22;10528;52.124;5.196;2024-02-21T15:00:54;11.30;99.90
20735;DHT22;10528;52.124;5.196;2024-02-21T15:03:21;11.10;99.90
20735;DHT22;10528;52.124;5.196;2024-02-21T15:05:48;11.00;99.90
20735;DHT22;10528;52.124;5.196;2024-02-21T15:08:15;11.00;99.90
20735;DHT22;10528;52.124;5.196;2024-02-21T15:10:45;10.90;99.90
20735;DHT22;10528;52.124;5.196;2024-02-21T15:13:12;10.80;99.90
20735;DHT22;10528;52.124;5.196;2024-02-21T15:15:39;10.70;99.90
20735;DHT22;10528;52.124;5.196;2024-02-21T15:18:06;10.80;99.90
20735;DHT22;10528;52.124;5.196;2024-02-21T15:20:33;10.70;99.90
20735;DHT22;10528;52.124;5.196;2024-02-21T15:23:00;10.70;99.90
20735;DHT22;10528;52.124;5.196;2024-02-21T15:25:31;10.80;99.90
20735;DHT22;10528;52.124;5.196;2024-02-21T15:27:58;10.70;99.90
20735;DHT22;10528;52.124;5.196;2024-02-21T15:30:26;10.60;99.90
20735;DHT22;10528;52.124;5.196;2024-02-21T15:32:59;10.70;99.90
20735;DHT22;10528;52.124;5.196;2024-02-21T15:35:29;10.50;99.90
20735;DHT22;10528;52.124;5.196;2024-02-21T15:37:57;10.50;99.90